Предлагаем Вашему вниманию английскую версию страницы: AUTOTAF.ME 15600 - aviation weather forecast Mourgash

AUTOTAF 15600 - авиапрогноз Mourgash

Сегодня рассвет 04:23 UTC, восход солнца 04:52 UTC,
местный полдень 10:09 UTC, заход солнца 15:25 UTC,
наступление темноты 15:54 UTC.

Краткий прогноз 15600 на 9 часов

AUTOTAF.ME 15600 260800Z 2609/2618 VRB02MPS 9999 BKN026     
  BECMG 2613/2615 NSC

Детальный прогноз 15600 на 24 часа

AUTOTAF.ME 15600 260800Z 2609/2709 VRB02MPS 9999 BKN026 TX15/2612Z TN07/2703Z   
  BECMG 2613/2615 SKC

Подробный табличный прогноз

Время (UTC) miniAUTOTAF на 3 ч WX FZLVL
M AGL
ICE TURB Т
(°С)
Тd
(°С)
f(%) QNH
(гПа)
WIND/T
06 VRB02MPS 9999 BKN009 810 8 7 93 1012 ...
09 VRB02MPS 9999 BKN026 900 MOD FL50/FL60 14 8 68 1011 ...
12 VRB02MPS 9999 SCT026TCU 1350 MOD FL50/FL70 15 6 55 1010 ...
15 VRB02MPS 9999 SKC 1650 MOD FL50/FL60 12 6 67 1010 ...
18 VRB02MPS 9999 SKC 1800 10 5 75 1011 ...
21 VRB02MPS 9999 SKC 1950 9 5 77 1011 ...
27.10.2020
00 VRB02MPS 9999 SKC 2100 8 5 78 1011 ...
03 VRB02MPS 9999 SKC 1950 7 4 80 1011 ...
06 VRB02MPS 9999 SKC 1950 8 4 75 1012 ...
09 VRB02MPS 9999 SKC 1950 15 5 50 1011 ...
12 VRB02MPS 9999 SKC 1800 MOD FL50/FL60 17 4 42 1010 ...
15 VRB02MPS 9999 SCT230 1650 13 7 66 1009 ...
18 VRB02MPS 9999 SCT220 1500 10 6 77 1011 ...
21 VRB02MPS 9999 BKN187TCU 1350 9 6 79 1012 ...
28.10.2020
00 VRB02MPS 9999 SCT160 1200 8 5 82 1012 ...
03 VRB02MPS 9999 BKN186TCU 1200 8 5 83 1013 ...


Широта 42.8°, долгота 23.7°, высота 1692 м абс.
Средняя высота рельефа местности 830 м абс.
Прогнозы обновляются четыре раза в сутки: в 02, 08, 14, 20 ч всемирного времени.


Выбрать прогноз по другой модели Mourgash
Онлайн-сводка гроз по Mourgash (для РФ и ближнего зарубежья)
Карта фактических гроз в окрестностях Mourgash
Динамические прогностические карты (ventusky.com)
Прогностическая карта высоты нижней границы облаков по Mourgash (windy.com)
Выбрать другой город

Прогноз предназначен для личного научно-познавательного использования частными лицами
и не предназначен для принятия важных решений и выполнения реальных полётов воздушных судов

При копировании или ином использовании любых материалов данного сайта ссылка на © meteocenter.asia обязательна.

0.89/1.3